Flight Track Log - Related Links

Times and Time Zones

All times are in EDT time to prevent confusion due to time zone crossing. See the SWA224 flight status page for this flight to view local times or setup timezone preferences in your user account.

Time Position Orientation Groundspeed Altitude Reporting Facility
EDT Latitude Longitude Course Direction KTS MPH feet Rate Location/Type
Sat 02:03:02 PM 33.4333 -112.0000 90° East 181 208 1,700  Level Phoenix TRACON
Sat 02:03:50 PM 33.4333 -111.9500 90° East 175 201 3,100 1,647 Climbing Phoenix TRACON
Sat 02:04:44 PM 33.4333 -111.8833 90° East 247 284 4,500 1,725 Climbing Phoenix TRACON
Sat 02:05:10 PM 33.4481 -111.8494 62° Northeast 248 285 5,400 2,523 Climbing Albuquerque Center
Sat 02:06:12 PM 33.4906 -111.7739 56° Northeast 276 318 8,200 2,878 Climbing Albuquerque Center
Sat 02:07:13 PM 33.5339 -111.6875 59° Northeast 306 352 11,300 2,829 Climbing Albuquerque Center
Sat 02:08:15 PM 33.5722 -111.5831 66° East 344 396 14,000 2,903 Climbing Albuquerque Center
Sat 02:09:17 PM 33.6222 -111.4467 66° East 377 434 17,300 2,952 Climbing Albuquerque Center
Sat 02:10:19 PM 33.6672 -111.3275 66° East 395 455 20,100 2,537 Climbing Albuquerque Center
Sat 02:11:20 PM 33.7131 -111.1994 67° East 416 479 22,500 2,244 Climbing Albuquerque Center
Sat 02:12:22 PM 33.7603 -111.0669 67° East 434 499 24,700 2,032 Climbing Albuquerque Center
Sat 02:13:24 PM 33.8089 -110.9278 67° East 447 514 26,700 1,805 Climbing Albuquerque Center
Sat 02:14:25 PM 33.8589 -110.7856 67° East 459 528 28,400 1,659 Climbing Albuquerque Center
Sat 02:15:27 PM 33.9103 -110.6400 67° East 469 540 30,100 1,887 Climbing Albuquerque Center
Sat 02:16:29 PM 33.9742 -110.4611 67° East 482 555 32,300 1,839 Climbing Albuquerque Center
Sat 02:17:31 PM 34.0197 -110.3294 67° East 484 557 33,900 1,610 Climbing Albuquerque Center
Sat 02:18:32 PM 34.0803 -110.1519 68° East 482 555 35,600 1,463 Climbing Albuquerque Center
Sat 02:19:34 PM 34.1289 -110.0125 67° East 479 551 36,900 683 Climbing Albuquerque Center
Sat 02:20:35 PM 34.1861 -109.8469 67° East 478 550 37,000 49 Climbing Albuquerque Center
Sat 02:21:37 PM 34.2336 -109.7064 68° East 475 547 37,000  Level Albuquerque Center
Sat 02:22:39 PM 34.2894 -109.5431 67° East 473 544 37,000  Level Albuquerque Center
Sat 02:23:40 PM 34.3383 -109.4028 67° East 472 543 37,000  Level Albuquerque Center
Sat 02:24:42 PM 34.3847 -109.2614 68° East 473 544 37,000  Level Albuquerque Center
Sat 02:25:44 PM 34.4392 -109.0975 68° East 472 543 37,000  Level Albuquerque Center
Sat 02:26:45 PM 34.4786 -108.9531 72° East 472 543 37,000  Level Albuquerque Center
Sat 02:27:47 PM 34.5256 -108.7831 71° East 474 545 37,000  Level Albuquerque Center
Sat 02:28:49 PM 34.5647 -108.6383 72° East 473 544 37,000  Level Albuquerque Center
Sat 02:29:50 PM 34.6111 -108.4661 72° East 477 549 37,000  Level Albuquerque Center
Sat 02:30:52 PM 34.6472 -108.3342 72° East 475 547 37,000  Level Albuquerque Center
Sat 02:31:53 PM 34.6878 -108.1814 72° East 475 547 37,000  Level Albuquerque Center
Sat 02:32:55 PM 34.7289 -108.0297 72° East 474 545 37,000  Level Albuquerque Center
Sat 02:33:57 PM 34.7783 -107.8475 72° East 473 544 37,000  Level Albuquerque Center
Sat 02:34:58 PM 34.8183 -107.6950 72° East 473 544 37,000  Level Albuquerque Center
Sat 02:36:00 PM 34.8567 -107.5428 73° East 472 543 37,000  Level Albuquerque Center
Sat 02:37:01 PM 34.8969 -107.3897 72° East 473 544 37,000  Level Albuquerque Center
Sat 02:38:03 PM 34.9364 -107.2369 72° East 474 545 37,000  Level Albuquerque Center
Sat 02:39:04 PM 34.9783 -107.0800 72° East 479 551 37,000  Level Albuquerque Center
Sat 02:40:06 PM 35.0208 -106.9075 73° East 475 547 37,000  Level Albuquerque Center
Sat 02:41:08 PM 35.0617 -106.7656 71° East 467 537 37,000  Level Albuquerque Center
Sat 02:42:09 PM 35.1236 -106.6003 65° Northeast 475 547 37,000  Level Albuquerque Center
Sat 02:43:11 PM 35.1758 -106.4636 65° Northeast 484 557 37,000  Level Albuquerque Center
Sat 02:44:12 PM 35.2300 -106.3153 66° East 481 554 37,000  Level Albuquerque Center
Sat 02:45:14 PM 35.2897 -106.1500 66° East 470 541 37,000  Level Albuquerque Center
Sat 02:46:15 PM 35.3439 -106.0017 66° East 472 543 37,000  Level Albuquerque Center
Sat 02:47:17 PM 35.4003 -105.8531 65° Northeast 474 545 37,000  Level Albuquerque Center
Sat 02:48:18 PM 35.4550 -105.7050 66° East 475 547 37,000  Level Albuquerque Center
Sat 02:49:20 PM 35.5069 -105.5575 67° East 469 540 37,000  Level Albuquerque Center
Sat 02:50:22 PM 35.5586 -105.4114 66° East 462 532 37,000  Level Albuquerque Center
Sat 02:51:23 PM 35.6100 -105.2631 67° East 464 534 37,000  Level Albuquerque Center
Sat 02:52:25 PM 35.6808 -105.0933 63° Northeast 472 543 37,000  Level Albuquerque Center
Sat 02:53:27 PM 35.7525 -104.9592 57° Northeast 466 536 37,000  Level Albuquerque Center
Sat 02:54:28 PM 35.8253 -104.8261 56° Northeast 465 535 37,000  Level Albuquerque Center
Sat 02:55:30 PM 35.8989 -104.6897 56° Northeast 467 537 37,000  Level Albuquerque Center
Sat 02:56:31 PM 35.9722 -104.5536 56° Northeast 470 541 37,000  Level Albuquerque Center
Sat 02:57:33 PM 36.0444 -104.4211 56° Northeast 462 532 37,000  Level Albuquerque Center
Sat 02:58:34 PM 36.1169 -104.2828 57° Northeast 469 540 37,000  Level Albuquerque Center
Sat 02:59:37 PM 36.1914 -104.1467 56° Northeast 472 543 37,000  Level Albuquerque Center
Sat 03:00:39 PM 36.2642 -104.0111 56° Northeast 468 539 37,000  Level Albuquerque Center
Sat 03:01:41 PM 36.3358 -103.8756 57° Northeast 466 536 37,000  Level Albuquerque Center
Sat 03:02:42 PM 36.4086 -103.7372 57° Northeast 471 542 37,000  Level Albuquerque Center
Sat 03:03:44 PM 36.4922 -103.5769 57° Northeast 470 541 37,000  Level Albuquerque Center
Sat 03:04:45 PM 36.5633 -103.4400 57° Northeast 468 539 37,000 49 Level Albuquerque Center
Sat 03:05:47 PM 36.6356 -103.3008 57° Northeast 472 543 37,100 774 Climbing Albuquerque Center
Sat 03:06:49 PM 36.7119 -103.1553 57° Northeast 475 547 38,600 927 Climbing Albuquerque Center
Sat 03:07:50 PM 36.7803 -103.0214 57° Northeast 478 550 39,000 195 Climbing Albuquerque Center
Sat 03:08:52 PM 36.8472 -102.8894 58° Northeast 474 545 39,000  Level Albuquerque Center
Sat 03:09:54 PM 36.9278 -102.7328 57° Northeast 479 551 39,000  Level Albuquerque Center
Sat 03:10:55 PM 36.9958 -102.5992 57° Northeast 478 550 39,000  Level Albuquerque Center
Sat 03:11:57 PM 37.0686 -102.4583 57° Northeast 472 543 39,000  Level Albuquerque Center
Sat 03:14:00 PM 37.2125 -102.1706 58° Northeast 470 541 39,000  Level Albuquerque Center
Sat 03:15:02 PM 37.2908 -102.0131 58° Northeast 475 547 39,000  Level Albuquerque Center
Sat 03:16:04 PM 37.3578 -101.8789 58° Northeast 475 547 39,000  Level Albuquerque Center
Sat 03:16:19 PM 37.3783 -101.8331 61° Northeast 474 545 39,000  Level Kansas City Center
Sat 03:17:20 PM 37.4453 -101.6978 58° Northeast 474 545 39,000  Level Kansas City Center
Sat 03:18:22 PM 37.5111 -101.5625 58° Northeast 474 545 39,000  Level Kansas City Center
Sat 03:19:23 PM 37.5892 -101.4044 58° Northeast 474 545 39,000  Level Kansas City Center
Sat 03:20:24 PM 37.6547 -101.2700 58° Northeast 470 541 39,000  Level Kansas City Center
Sat 03:21:26 PM 37.7308 -101.1147 58° Northeast 465 535 39,000  Level Kansas City Center
Sat 03:22:27 PM 37.7961 -100.9797 59° Northeast 463 533 39,000  Level Kansas City Center
Sat 03:23:29 PM 37.8611 -100.8456 58° Northeast 460 529 39,000  Level Kansas City Center
Sat 03:24:30 PM 37.9239 -100.7108 59° Northeast 460 529 39,000  Level Kansas City Center
Sat 03:25:32 PM 37.9803 -100.5425 67° East 463 533 39,000  Level Kansas City Center
Sat 03:26:33 PM 38.0286 -100.3994 67° East 462 532 39,000  Level Kansas City Center
Sat 03:27:34 PM 38.0858 -100.2286 67° East 466 536 39,000  Level Kansas City Center
Sat 03:28:36 PM 38.1333 -100.0850 67° East 463 533 39,000  Level Kansas City Center
Sat 03:29:37 PM 38.1800 -99.9425 67° East 458 527 39,000  Level Kansas City Center
Sat 03:30:39 PM 38.2353 -99.7786 67° East 453 521 39,000  Level Kansas City Center
Sat 03:31:40 PM 38.2811 -99.6367 68° East 453 521 39,000  Level Kansas City Center
Sat 03:32:42 PM 38.3261 -99.5022 67° East 449 517 39,000  Level Kansas City Center
Sat 03:33:43 PM 38.3833 -99.3269 67° East 447 514 39,000  Level Kansas City Center
Sat 03:34:45 PM 38.4314 -99.1794 67° East 450 518 39,000  Level Kansas City Center
Sat 03:35:46 PM 38.4797 -99.0314 67° East 451 519 39,000  Level Kansas City Center
Sat 03:36:48 PM 38.5278 -98.8836 67° East 450 518 39,000  Level Kansas City Center
Sat 03:37:49 PM 38.5758 -98.7336 68° East 454 522 39,000  Level Kansas City Center
Sat 03:38:50 PM 38.6233 -98.5858 68° East 449 517 39,000  Level Kansas City Center
Sat 03:39:52 PM 38.6700 -98.4381 68° East 447 514 39,000  Level Kansas City Center
Sat 03:40:53 PM 38.7169 -98.2908 68° East 444 511 39,000  Level Kansas City Center
Sat 03:41:55 PM 38.7633 -98.1433 68° East 444 511 39,000  Level Kansas City Center
Sat 03:42:56 PM 38.8092 -97.9961 68° East 444 511 39,000  Level Kansas City Center
Sat 03:43:58 PM 38.8589 -97.8364 68° East 445 512 39,000  Level Kansas City Center
Sat 03:44:59 PM 38.9086 -97.6744 68° East 439 505 39,000  Level Kansas City Center
Sat 03:46:01 PM 38.9486 -97.5347 70° East 436 502 39,000  Level Kansas City Center
Sat 03:47:02 PM 38.9922 -97.3706 71° East 435 501 39,000  Level Kansas City Center
Sat 03:48:03 PM 39.0292 -97.2303 71° East 433 498 39,000  Level Kansas City Center
Sat 03:49:05 PM 39.0653 -97.0933 71° East 426 490 39,000  Level Kansas City Center
Sat 03:50:06 PM 39.1050 -96.9339 72° East 420 483 39,000  Level Kansas City Center
Sat 03:51:08 PM 39.1417 -96.7983 71° East 420 483 39,000  Level Kansas City Center
Sat 03:52:09 PM 39.1817 -96.6397 72° East 417 480 39,000  Level Kansas City Center
Sat 03:53:11 PM 39.2164 -96.5042 72° East 416 479 39,000  Level Kansas City Center
Sat 03:54:12 PM 39.2506 -96.3669 72° East 418 481 39,000  Level Kansas City Center
Sat 03:55:14 PM 39.2906 -96.2092 72° East 415 478 39,000  Level Kansas City Center
Sat 03:56:15 PM 39.3247 -96.0753 72° East 412 474 39,000  Level Kansas City Center
Sat 03:57:17 PM 39.3633 -95.9183 72° East 409 471 39,000  Level Kansas City Center
Sat 03:58:18 PM 39.3969 -95.7817 72° East 415 478 39,000  Level Kansas City Center
Sat 03:59:20 PM 39.4303 -95.6456 72° East 413 475 39,000  Level Kansas City Center
Sat 04:00:22 PM 39.4694 -95.4872 72° East 412 474 39,000  Level Kansas City Center
Sat 04:01:23 PM 39.5056 -95.3378 73° East 415 478 39,000  Level Kansas City Center
Sat 04:02:25 PM 39.5394 -95.1975 73° East 411 473 39,000  Level Kansas City Center
Sat 04:03:26 PM 39.5733 -95.0564 73° East 408 470 39,000  Level Kansas City Center
Sat 04:04:28 PM 39.6061 -94.9206 73° East 409 471 39,000  Level Kansas City Center
Sat 04:05:29 PM 39.6453 -94.7619 72° East 411 473 39,000  Level Kansas City Center
Sat 04:06:31 PM 39.6764 -94.6233 74° East 416 479 39,000  Level Kansas City Center
Sat 04:07:33 PM 39.7094 -94.4858 73° East 417 480 39,000  Level Kansas City Center
Sat 04:08:34 PM 39.7467 -94.3244 73° East 417 480 39,000  Level Kansas City Center
Sat 04:09:36 PM 39.7781 -94.1872 73° East 415 478 39,000  Level Kansas City Center
Sat 04:10:37 PM 39.8114 -94.0456 73° East 410 472 39,000  Level Kansas City Center
Sat 04:11:39 PM 39.8414 -93.9036 75° East 407 468 39,000  Level Kansas City Center
Sat 04:12:40 PM 39.8728 -93.7647 74° East 404 465 39,000  Level Kansas City Center
Sat 04:13:42 PM 39.9128 -93.6017 72° East 400 460 39,000  Level Kansas City Center
Sat 04:14:44 PM 39.9425 -93.4622 74° East 401 461 39,000  Level Kansas City Center
Sat 04:15:45 PM 39.9731 -93.3247 74° East 402 463 39,000  Level Kansas City Center
Sat 04:16:47 PM 40.0047 -93.1897 73° East 396 456 39,000  Level Kansas City Center
Sat 04:17:48 PM 40.0342 -93.0547 74° East 392 451 39,000  Level Kansas City Center
Sat 04:18:50 PM 40.0664 -92.9031 74° East 392 451 39,000  Level Kansas City Center
Sat 04:19:52 PM 40.0950 -92.7703 74° East 395 455 39,000  Level Kansas City Center
Sat 04:20:53 PM 40.1278 -92.6156 74° East 396 456 39,000  Level Kansas City Center
Sat 04:21:55 PM 40.1581 -92.4825 73° East 399 459 39,000  Level Kansas City Center
Sat 04:22:56 PM 40.1872 -92.3367 75° East 394 453 39,000  Level Kansas City Center
Sat 04:23:58 PM 40.2192 -92.1839 75° East 398 458 39,000  Level Kansas City Center
Sat 04:25:00 PM 40.2469 -92.0458 75° East 396 456 39,000  Level Kansas City Center
Sat 04:26:01 PM 40.2747 -91.9078 75° East 396 456 39,000 -585 Level Kansas City Center
Sat 04:27:03 PM 40.3031 -91.7697 75° East 396 456 37,800 -1,415 Descending Kansas City Center
Sat 04:28:04 PM 40.3314 -91.6300 75° East 398 458 36,100 -1,854 Descending Kansas City Center
Sat 04:29:06 PM 40.3575 -91.4903 76° East 398 458 34,000 -2,146 Descending Kansas City Center
Sat 04:30:07 PM 40.3894 -91.3267 76° East 391 450 31,700 -2,047 Descending Kansas City Center
Sat 04:30:31 PM 40.4014 -91.2775 72° East 393 452 31,100 -494 Descending Chicago Center
Sat 04:31:32 PM 40.4294 -91.1361 75° East 400 460 31,000 -49 Descending Chicago Center
Sat 04:32:34 PM 40.4558 -90.9950 76° East 399 459 31,000  Level Chicago Center
Sat 04:33:36 PM 40.4836 -90.8533 76° East 399 459 31,000 -242 Level Chicago Center
Sat 04:34:38 PM 40.5103 -90.7117 76° East 400 460 30,500 -732 Descending Chicago Center
Sat 04:35:39 PM 40.5364 -90.5703 76° East 399 459 29,500 -1,659 Descending Chicago Center
Sat 04:36:41 PM 40.5911 -90.4389 61° Northeast 408 470 27,100 -2,032 Descending Chicago Center
Sat 04:37:43 PM 40.6647 -90.2831 58° Northeast 415 478 25,300 -1,561 Descending Chicago Center
Sat 04:38:44 PM 40.7192 -90.1664 58° Northeast 407 468 23,900 -1,171 Descending Chicago Center
Sat 04:39:46 PM 40.7767 -90.0422 59° Northeast 399 459 22,900 -968 Descending Chicago Center
Sat 04:40:48 PM 40.8342 -89.9183 58° Northeast 397 457 21,900 -1,694 Descending Chicago Center
Sat 04:41:50 PM 40.8983 -89.7756 59° Northeast 378 435 19,400 -2,341 Descending Chicago Center
Sat 04:42:51 PM 40.9500 -89.6614 59° Northeast 367 422 17,100 -2,146 Descending Chicago Center
Sat 04:43:53 PM 41.0006 -89.5511 59° Northeast 363 418 15,000 -1,355 Descending Chicago Center
Sat 04:44:55 PM 41.0517 -89.4367 59° Northeast 358 412 14,300 -829 Descending Chicago Center
Sat 04:45:56 PM 41.1025 -89.3247 59° Northeast 360 414 13,300 -976 Descending Chicago Center
Sat 04:46:58 PM 41.1508 -89.2161 59° Northeast 349 402 12,300 -1,065 Descending Chicago Center
Sat 04:48:00 PM 41.2058 -89.0889 60° Northeast 337 388 11,100 -919 Descending Chicago Center
Sat 04:49:02 PM 41.2508 -88.9878 59° Northeast 329 379 10,400 -829 Descending Chicago Center
Sat 04:50:03 PM 41.3092 -88.9219 40° Northeast 286 329 9,400 -1,220 Descending Chicago Center
Sat 04:51:05 PM 41.3669 -88.8581 40° Northeast 277 319 7,900 -1,258 Descending Chicago Center
Sat 04:52:07 PM 41.3947 -88.7683 68° East 259 298 6,800 -927 Descending Chicago Center
Sat 04:53:08 PM 41.4253 -88.6828 65° Northeast 257 296 6,000 -390 Descending Chicago Center
Sat 04:54:10 PM 41.4589 -88.5783 67° East 256 295 6,000  Level Chicago Center
Sat 04:55:12 PM 41.4844 -88.4906 69° East 255 293 6,000  Level Chicago Center
Sat 04:56:14 PM 41.5100 -88.4033 69° East 254 292 6,000 -290 Level Chicago Center
Sat 04:57:16 PM 41.5358 -88.3156 69° East 253 291 5,400 -732 Descending Chicago Center
Sat 04:58:17 PM 41.5625 -88.2244 69° East 258 297 4,500 -683 Descending Chicago Center
Sat 04:59:19 PM 41.5881 -88.1369 69° East 255 293 4,000 -240 Descending Chicago Center
Sat 05:00:22 PM 41.6136 -88.0506 68° East 252 290 4,000  Level Chicago Center
Sat 05:01:24 PM 41.6422 -87.9556 68° East 238 274 4,000 -242 Level Chicago Center
Sat 05:02:26 PM 41.6717 -87.8967 56° Northeast 214 246 3,500 -661 Descending Chicago Center
Sat 05:03:13 PM 41.7000 -87.8667 38° Northeast 172 198 2,800 -891 Descending Chicago TRACON
Sat 05:04:07 PM 41.7333 -87.8167 48° Northeast 149 171 2,000 -737 Descending Chicago TRACON
Sat 05:05:07 PM 41.7500 -87.8000 37° Northeast 121 139 1,400 -600 Descending Chicago TRACON

Login

Don't have an account? Register now (free) for customized features, flight alerts, and more!